sensor_id;sensor_type;location;lat;lon;timestamp;pressure;altitude;pressure_sealevel;temperature;humidity
76358;BME280;65185;21.060;105.826;2024-01-25T00:00:17;103009.41;;;12.01;73.80
76358;BME280;65185;21.060;105.826;2024-01-25T00:02:44;103008.50;;;11.99;74.19
76358;BME280;65185;21.060;105.826;2024-01-25T00:05:10;103012.88;;;12.02;73.16
76358;BME280;65185;21.060;105.826;2024-01-25T00:07:46;103020.75;;;12.05;73.30
76358;BME280;65185;21.060;105.826;2024-01-25T00:10:12;103020.84;;;12.08;72.59
76358;BME280;65185;21.060;105.826;2024-01-25T00:12:39;103023.47;;;12.10;72.67
76358;BME280;65185;21.060;105.826;2024-01-25T00:15:06;103031.22;;;12.08;72.59
76358;BME280;65185;21.060;105.826;2024-01-25T00:17:32;103031.31;;;12.11;72.82
76358;BME280;65185;21.060;105.826;2024-01-25T00:19:59;103045.09;;;12.09;73.11
76358;BME280;65185;21.060;105.826;2024-01-25T00:22:26;103032.16;;;12.10;73.62
76358;BME280;65185;21.060;105.826;2024-01-25T00:24:52;103053.00;;;12.13;73.56
76358;BME280;65185;21.060;105.826;2024-01-25T00:27:19;103052.19;;;12.14;73.59
76358;BME280;65185;21.060;105.826;2024-01-25T00:29:46;103053.94;;;12.15;74.07
76358;BME280;65185;21.060;105.826;2024-01-25T00:32:12;103063.47;;;12.15;73.85
76358;BME280;65185;21.060;105.826;2024-01-25T00:34:39;103070.31;;;12.11;73.97
76358;BME280;65185;21.060;105.826;2024-01-25T00:37:06;103069.44;;;12.12;73.68
76358;BME280;65185;21.060;105.826;2024-01-25T00:39:33;103072.13;;;12.15;73.99
76358;BME280;65185;21.060;105.826;2024-01-25T00:42:04;103070.44;;;12.17;73.96
76358;BME280;65185;21.060;105.826;2024-01-25T00:44:33;103073.84;;;12.15;72.97
76358;BME280;65185;21.060;105.826;2024-01-25T00:47:01;103075.56;;;12.14;73.27
76358;BME280;65185;21.060;105.826;2024-01-25T00:49:28;103084.25;;;12.15;73.23
76358;BME280;65185;21.060;105.826;2024-01-25T00:51:59;103079.91;;;12.15;73.19
76358;BME280;65185;21.060;105.826;2024-01-25T00:54:28;103082.66;;;12.20;73.17
76358;BME280;65185;21.060;105.826;2024-01-25T00:56:55;103080.94;;;12.20;73.36
76358;BME280;65185;21.060;105.826;2024-01-25T00:59:22;103087.13;;;12.25;73.25
76358;BME280;65185;21.060;105.826;2024-01-25T01:01:49;103086.16;;;12.22;73.28
76358;BME280;65185;21.060;105.826;2024-01-25T01:04:18;103096.44;;;12.17;73.22
76358;BME280;65185;21.060;105.826;2024-01-25T01:06:45;103094.00;;;12.23;71.44
76358;BME280;65185;21.060;105.826;2024-01-25T01:09:13;103101.81;;;12.23;71.02
76358;BME280;65185;21.060;105.826;2024-01-25T01:11:40;103105.19;;;12.21;71.27
76358;BME280;65185;21.060;105.826;2024-01-25T01:14:07;103107.78;;;12.21;71.74
76358;BME280;65185;21.060;105.826;2024-01-25T01:16:33;103115.66;;;12.22;71.88
76358;BME280;65185;21.060;105.826;2024-01-25T01:19:02;103117.41;;;12.23;71.31
76358;BME280;65185;21.060;105.826;2024-01-25T01:21:33;103119.22;;;12.26;71.75
76358;BME280;65185;21.060;105.826;2024-01-25T01:24:00;103121.16;;;12.34;70.61
76358;BME280;65185;21.060;105.826;2024-01-25T01:26:27;103129.84;;;12.35;69.96
76358;BME280;65185;21.060;105.826;2024-01-25T01:28:53;103130.69;;;12.35;69.57
76358;BME280;65185;21.060;105.826;2024-01-25T01:31:22;103135.28;;;12.44;69.13
76358;BME280;65185;21.060;105.826;2024-01-25T01:33:49;103131.03;;;12.47;68.60
76358;BME280;65185;21.060;105.826;2024-01-25T01:36:15;103136.97;;;12.42;68.36
76358;BME280;65185;21.060;105.826;2024-01-25T01:38:42;103136.00;;;12.38;68.49
76358;BME280;65185;21.060;105.826;2024-01-25T01:41:10;103142.16;;;12.42;69.21
76358;BME280;65185;21.060;105.826;2024-01-25T01:43:39;103138.56;;;12.37;68.88
76358;BME280;65185;21.060;105.826;2024-01-25T01:46:34;103148.97;;;12.37;69.84
76358;BME280;65185;21.060;105.826;2024-01-25T01:49:04;103146.31;;;12.35;69.63
76358;BME280;65185;21.060;105.826;2024-01-25T01:51:31;103152.47;;;12.39;69.20
76358;BME280;65185;21.060;105.826;2024-01-25T01:54:00;103154.03;;;12.32;69.60
76358;BME280;65185;21.060;105.826;2024-01-25T01:56:28;103155.50;;;12.55;68.09
76358;BME280;65185;21.060;105.826;2024-01-25T01:59:02;103155.41;;;12.51;68.71
76358;BME280;65185;21.060;105.826;2024-01-25T02:01:29;103155.34;;;12.48;69.39
76358;BME280;65185;21.060;105.826;2024-01-25T02:03:55;103160.56;;;12.49;69.32
76358;BME280;65185;21.060;105.826;2024-01-25T02:06:23;103164.00;;;12.48;69.88
76358;BME280;65185;21.060;105.826;2024-01-25T02:08:50;103166.63;;;12.50;69.44
76358;BME280;65185;21.060;105.826;2024-01-25T02:11:19;103173.53;;;12.48;69.13
76358;BME280;65185;21.060;105.826;2024-01-25T02:13:46;103170.28;;;12.56;68.98
76358;BME280;65185;21.060;105.826;2024-01-25T02:16:13;103166.16;;;12.64;67.78
76358;BME280;65185;21.060;105.826;2024-01-25T02:18:43;103174.72;;;12.60;67.63
76358;BME280;65185;21.060;105.826;2024-01-25T02:21:10;103168.56;;;12.57;67.74
76358;BME280;65185;21.060;105.826;2024-01-25T02:23:36;103183.22;;;12.53;67.35
76358;BME280;65185;21.060;105.826;2024-01-25T02:26:03;103170.25;;;12.55;67.85
76358;BME280;65185;21.060;105.826;2024-01-25T02:28:30;103185.91;;;12.58;66.52
76358;BME280;65185;21.060;105.826;2024-01-25T02:30:57;103177.22;;;12.57;66.77
76358;BME280;65185;21.060;105.826;2024-01-25T02:33:23;103175.50;;;12.58;66.04
76358;BME280;65185;21.060;105.826;2024-01-25T02:35:50;103177.38;;;12.62;67.16
76358;BME280;65185;21.060;105.826;2024-01-25T02:38:16;103173.97;;;12.64;66.87
76358;BME280;65185;21.060;105.826;2024-01-25T02:40:43;103172.25;;;12.66;66.78
76358;BME280;65185;21.060;105.826;2024-01-25T02:43:09;103167.13;;;12.68;66.67
76358;BME280;65185;21.060;105.826;2024-01-25T02:45:36;103163.66;;;12.69;66.21
76358;BME280;65185;21.060;105.826;2024-01-25T02:48:03;103169.06;;;12.76;66.67
76358;BME280;65185;21.060;105.826;2024-01-25T02:50:30;103169.09;;;12.78;66.39
76358;BME280;65185;21.060;105.826;2024-01-25T02:52:57;103164.78;;;12.78;65.89
76358;BME280;65185;21.060;105.826;2024-01-25T02:55:24;103164.72;;;12.75;66.55
76358;BME280;65185;21.060;105.826;2024-01-25T02:57:51;103161.25;;;12.76;66.65
76358;BME280;65185;21.060;105.826;2024-01-25T03:00:17;103159.59;;;12.78;66.19
76358;BME280;65185;21.060;105.826;2024-01-25T03:02:44;103162.22;;;12.80;65.34
76358;BME280;65185;21.060;105.826;2024-01-25T03:05:11;103150.09;;;12.80;65.25
76358;BME280;65185;21.060;105.826;2024-01-25T03:07:38;103151.06;;;12.84;65.18
76358;BME280;65185;21.060;105.826;2024-01-25T03:10:05;103151.97;;;12.86;65.15
76358;BME280;65185;21.060;105.826;2024-01-25T03:12:32;103143.28;;;12.85;64.57
76358;BME280;65185;21.060;105.826;2024-01-25T03:14:58;103152.03;;;12.89;64.87
76358;BME280;65185;21.060;105.826;2024-01-25T03:17:25;103145.16;;;12.91;64.85
76358;BME280;65185;21.060;105.826;2024-01-25T03:19:51;103143.44;;;12.91;64.21
76358;BME280;65185;21.060;105.826;2024-01-25T03:22:18;103142.50;;;12.88;63.68
76358;BME280;65185;21.060;105.826;2024-01-25T03:24:45;103139.16;;;12.93;63.58
76358;BME280;65185;21.060;105.826;2024-01-25T03:27:12;103123.63;;;12.98;64.10
76358;BME280;65185;21.060;105.826;2024-01-25T03:29:43;103130.78;;;13.05;63.52
76358;BME280;65185;21.060;105.826;2024-01-25T03:32:10;103131.69;;;13.07;63.29
76358;BME280;65185;21.060;105.826;2024-01-25T03:34:38;103114.34;;;13.08;63.93
76358;BME280;65185;21.060;105.826;2024-01-25T03:37:04;103111.78;;;13.09;63.29
76358;BME280;65185;21.060;105.826;2024-01-25T03:39:31;103102.19;;;13.07;63.37
76358;BME280;65185;21.060;105.826;2024-01-25T03:41:58;103115.28;;;13.10;63.16
76358;BME280;65185;21.060;105.826;2024-01-25T03:44:24;103104.88;;;13.11;63.70
76358;BME280;65185;21.060;105.826;2024-01-25T03:46:51;103108.41;;;13.13;63.55
76358;BME280;65185;21.060;105.826;2024-01-25T03:49:18;103107.63;;;13.16;64.51
76358;BME280;65185;21.060;105.826;2024-01-25T03:51:45;103103.22;;;13.15;64.48
76358;BME280;65185;21.060;105.826;2024-01-25T03:54:12;103105.75;;;13.10;64.16
76358;BME280;65185;21.060;105.826;2024-01-25T03:56:38;103108.41;;;13.13;63.82
76358;BME280;65185;21.060;105.826;2024-01-25T03:59:05;103100.66;;;13.16;64.38
76358;BME280;65185;21.060;105.826;2024-01-25T04:01:42;103095.53;;;13.19;64.07
76358;BME280;65185;21.060;105.826;2024-01-25T04:04:09;103092.16;;;13.23;64.44
76358;BME280;65185;21.060;105.826;2024-01-25T04:06:45;103088.75;;;13.27;64.58
76358;BME280;65185;21.060;105.826;2024-01-25T04:09:12;103088.81;;;13.29;64.82
76358;BME280;65185;21.060;105.826;2024-01-25T04:11:41;103079.34;;;13.32;64.04
76358;BME280;65185;21.060;105.826;2024-01-25T04:14:07;103088.94;;;13.35;64.45
76358;BME280;65185;21.060;105.826;2024-01-25T04:16:34;103076.00;;;13.38;63.85
76358;BME280;65185;21.060;105.826;2024-01-25T04:19:01;103066.50;;;13.40;64.92
76358;BME280;65185;21.060;105.826;2024-01-25T04:21:28;103064.84;;;13.43;65.28
76358;BME280;65185;21.060;105.826;2024-01-25T04:23:55;103067.50;;;13.48;64.92
76358;BME280;65185;21.060;105.826;2024-01-25T04:26:22;103055.34;;;13.47;64.33
76358;BME280;65185;21.060;105.826;2024-01-25T04:28:49;103050.25;;;13.53;64.26
76358;BME280;65185;21.060;105.826;2024-01-25T04:31:16;103049.41;;;13.52;64.52
76358;BME280;65185;21.060;105.826;2024-01-25T04:33:43;103045.16;;;13.57;64.05
76358;BME280;65185;21.060;105.826;2024-01-25T04:36:09;103033.94;;;13.61;64.11
76358;BME280;65185;21.060;105.826;2024-01-25T04:38:36;103031.38;;;13.63;63.81
76358;BME280;65185;21.060;105.826;2024-01-25T04:41:03;103029.59;;;13.62;63.92
76358;BME280;65185;21.060;105.826;2024-01-25T04:43:36;103026.19;;;13.66;64.15
76358;BME280;65185;21.060;105.826;2024-01-25T04:46:03;103021.88;;;13.66;64.45
76358;BME280;65185;21.060;105.826;2024-01-25T04:48:30;103018.41;;;13.67;64.51
76358;BME280;65185;21.060;105.826;2024-01-25T04:50:57;103004.59;;;13.71;64.57
76358;BME280;65185;21.060;105.826;2024-01-25T04:53:25;103003.78;;;13.74;64.99
76358;BME280;65185;21.060;105.826;2024-01-25T04:55:54;102998.59;;;13.74;64.12
76358;BME280;65185;21.060;105.826;2024-01-25T04:58:21;102998.63;;;13.77;64.31
76358;BME280;65185;21.060;105.826;2024-01-25T05:00:48;102979.56;;;13.79;64.09
76358;BME280;65185;21.060;105.826;2024-01-25T05:03:16;102975.31;;;13.84;63.94
76358;BME280;65185;21.060;105.826;2024-01-25T05:05:42;102973.59;;;13.85;64.30
76358;BME280;65185;21.060;105.826;2024-01-25T05:08:09;102971.03;;;13.88;63.95
76358;BME280;65185;21.060;105.826;2024-01-25T05:10:36;102963.28;;;13.91;63.78
76358;BME280;65185;21.060;105.826;2024-01-25T05:13:03;102959.81;;;13.92;63.87
76358;BME280;65185;21.060;105.826;2024-01-25T05:15:29;102959.81;;;13.92;63.78
76358;BME280;65185;21.060;105.826;2024-01-25T05:17:56;102952.03;;;13.95;63.77
76358;BME280;65185;21.060;105.826;2024-01-25T05:20:23;102952.16;;;14.01;64.76
76358;BME280;65185;21.060;105.826;2024-01-25T05:22:54;102944.31;;;13.99;64.69
76358;BME280;65185;21.060;105.826;2024-01-25T05:25:21;102942.56;;;13.98;65.46
76358;BME280;65185;21.060;105.826;2024-01-25T05:27:47;102934.69;;;13.97;66.17
76358;BME280;65185;21.060;105.826;2024-01-25T05:30:14;102932.91;;;13.93;64.22
76358;BME280;65185;21.060;105.826;2024-01-25T05:32:41;102931.09;;;13.89;64.00
76358;BME280;65185;21.060;105.826;2024-01-25T05:35:08;102925.00;;;13.87;64.58
76358;BME280;65185;21.060;105.826;2024-01-25T05:37:35;102922.38;;;13.87;64.76
76358;BME280;65185;21.060;105.826;2024-01-25T05:40:02;102915.44;;;13.87;64.94
76358;BME280;65185;21.060;105.826;2024-01-25T05:42:28;102916.31;;;13.89;65.32
76358;BME280;65185;21.060;105.826;2024-01-25T05:44:55;102905.94;;;13.91;65.90
76358;BME280;65185;21.060;105.826;2024-01-25T05:47:22;102908.59;;;13.94;65.45
76358;BME280;65185;21.060;105.826;2024-01-25T05:49:49;102895.59;;;13.95;64.45
76358;BME280;65185;21.060;105.826;2024-01-25T05:52:15;102892.16;;;13.96;65.52
76358;BME280;65185;21.060;105.826;2024-01-25T05:54:42;102887.84;;;14.00;65.60
76358;BME280;65185;21.060;105.826;2024-01-25T05:57:09;102884.41;;;14.02;64.79
76358;BME280;65185;21.060;105.826;2024-01-25T05:59:36;102876.66;;;14.07;64.12
76358;BME280;65185;21.060;105.826;2024-01-25T06:02:03;102870.59;;;14.08;63.55
76358;BME280;65185;21.060;105.826;2024-01-25T06:04:29;102859.34;;;14.12;63.63
76358;BME280;65185;21.060;105.826;2024-01-25T06:06:56;102855.94;;;14.15;64.88
76358;BME280;65185;21.060;105.826;2024-01-25T06:09:23;102838.63;;;14.20;65.06
76358;BME280;65185;21.060;105.826;2024-01-25T06:11:53;102840.44;;;14.25;64.40
76358;BME280;65185;21.060;105.826;2024-01-25T06:14:20;102838.63;;;14.23;63.27
76358;BME280;65185;21.060;105.826;2024-01-25T06:16:47;102833.47;;;14.24;64.65
76358;BME280;65185;21.060;105.826;2024-01-25T06:19:13;102823.88;;;14.23;64.36
76358;BME280;65185;21.060;105.826;2024-01-25T06:21:40;102830.94;;;14.27;65.01
76358;BME280;65185;21.060;105.826;2024-01-25T06:24:07;102825.72;;;14.27;64.28
76358;BME280;65185;21.060;105.826;2024-01-25T06:26:33;102822.19;;;14.25;63.47
76358;BME280;65185;21.060;105.826;2024-01-25T06:29:00;102823.13;;;14.29;64.31
76358;BME280;65185;21.060;105.826;2024-01-25T06:31:28;102816.06;;;14.23;63.04
76358;BME280;65185;21.060;105.826;2024-01-25T06:33:55;102811.72;;;14.22;63.27
76358;BME280;65185;21.060;105.826;2024-01-25T06:36:22;102801.38;;;14.27;63.62
76358;BME280;65185;21.060;105.826;2024-01-25T06:38:48;102802.25;;;14.29;62.57
76358;BME280;65185;21.060;105.826;2024-01-25T06:41:15;102796.91;;;14.23;61.66
76358;BME280;65185;21.060;105.826;2024-01-25T06:43:42;102803.91;;;14.22;61.24
76358;BME280;65185;21.060;105.826;2024-01-25T06:46:09;102792.56;;;14.19;62.61
76358;BME280;65185;21.060;105.826;2024-01-25T06:48:36;102789.03;;;14.17;62.37
76358;BME280;65185;21.060;105.826;2024-01-25T06:51:03;102787.34;;;14.20;63.14
76358;BME280;65185;21.060;105.826;2024-01-25T06:53:33;102784.78;;;14.23;63.53
76358;BME280;65185;21.060;105.826;2024-01-25T06:55:59;102770.00;;;14.22;62.98
76358;BME280;65185;21.060;105.826;2024-01-25T06:58:26;102772.63;;;14.25;62.46
76358;BME280;65185;21.060;105.826;2024-01-25T07:00:52;102764.88;;;14.28;62.56
76358;BME280;65185;21.060;105.826;2024-01-25T07:03:19;102767.53;;;14.31;63.37
76358;BME280;65185;21.060;105.826;2024-01-25T07:05:46;102764.97;;;14.34;63.25
76358;BME280;65185;21.060;105.826;2024-01-25T07:08:12;102763.22;;;14.33;63.03
76358;BME280;65185;21.060;105.826;2024-01-25T07:10:40;102764.06;;;14.34;62.36
76358;BME280;65185;21.060;105.826;2024-01-25T07:13:07;102759.72;;;14.31;61.85
76358;BME280;65185;21.060;105.826;2024-01-25T07:15:34;102761.44;;;14.29;61.79
76358;BME280;65185;21.060;105.826;2024-01-25T07:18:01;102751.88;;;14.30;62.63
76358;BME280;65185;21.060;105.826;2024-01-25T07:20:28;102749.31;;;14.33;63.16
76358;BME280;65185;21.060;105.826;2024-01-25T07:22:54;102749.31;;;14.34;64.36
76358;BME280;65185;21.060;105.826;2024-01-25T07:25:21;102753.72;;;14.38;63.56
76358;BME280;65185;21.060;105.826;2024-01-25T07:27:48;102753.69;;;14.37;63.58
76358;BME280;65185;21.060;105.826;2024-01-25T07:30:15;102758.03;;;14.38;63.12
76358;BME280;65185;21.060;105.826;2024-01-25T07:32:42;102750.19;;;14.35;63.43
76358;BME280;65185;21.060;105.826;2024-01-25T07:35:09;102753.59;;;14.29;64.09
76358;BME280;65185;21.060;105.826;2024-01-25T07:37:36;102743.09;;;14.26;64.00
76358;BME280;65185;21.060;105.826;2024-01-25T07:40:03;102736.19;;;14.27;64.44
76358;BME280;65185;21.060;105.826;2024-01-25T07:42:32;102736.03;;;14.18;62.67
76358;BME280;65185;21.060;105.826;2024-01-25T07:44:59;102733.44;;;14.19;64.35
76358;BME280;65185;21.060;105.826;2024-01-25T07:47:26;102720.41;;;14.21;64.31
76358;BME280;65185;21.060;105.826;2024-01-25T07:49:53;102721.38;;;14.26;63.80
76358;BME280;65185;21.060;105.826;2024-01-25T07:52:29;102725.69;;;14.24;63.44
76358;BME280;65185;21.060;105.826;2024-01-25T07:54:55;102725.69;;;14.22;63.04
76358;BME280;65185;21.060;105.826;2024-01-25T07:57:22;102729.19;;;14.26;63.32
76358;BME280;65185;21.060;105.826;2024-01-25T07:59:49;102708.31;;;14.24;63.77
76358;BME280;65185;21.060;105.826;2024-01-25T08:02:15;102722.31;;;14.29;64.26
76358;BME280;65185;21.060;105.826;2024-01-25T08:04:46;102716.22;;;14.29;65.06
76358;BME280;65185;21.060;105.826;2024-01-25T08:07:12;102704.06;;;14.29;65.72
76358;BME280;65185;21.060;105.826;2024-01-25T08:09:39;102716.25;;;14.32;66.24
76358;BME280;65185;21.060;105.826;2024-01-25T08:12:06;102713.63;;;14.30;65.88
76358;BME280;65185;21.060;105.826;2024-01-25T08:14:33;102716.22;;;14.30;65.48
76358;BME280;65185;21.060;105.826;2024-01-25T08:16:59;102715.34;;;14.28;66.53
76358;BME280;65185;21.060;105.826;2024-01-25T08:19:26;102709.19;;;14.26;66.77
76358;BME280;65185;21.060;105.826;2024-01-25T08:21:53;102703.06;;;14.23;66.50
76358;BME280;65185;21.060;105.826;2024-01-25T08:24:20;102702.22;;;14.22;66.16
76358;BME280;65185;21.060;105.826;2024-01-25T08:26:46;102694.34;;;14.21;66.24
76358;BME280;65185;21.060;105.826;2024-01-25T08:29:13;102694.31;;;14.16;66.37
76358;BME280;65185;21.060;105.826;2024-01-25T08:31:40;102691.69;;;14.13;66.08
76358;BME280;65185;21.060;105.826;2024-01-25T08:34:06;102693.41;;;14.16;66.16
76358;BME280;65185;21.060;105.826;2024-01-25T08:36:33;102689.91;;;14.12;67.13
76358;BME280;65185;21.060;105.826;2024-01-25T08:39:00;102691.63;;;14.12;67.01
76358;BME280;65185;21.060;105.826;2024-01-25T08:41:27;102694.22;;;14.10;67.51
76358;BME280;65185;21.060;105.826;2024-01-25T08:43:53;102699.41;;;14.06;67.52
76358;BME280;65185;21.060;105.826;2024-01-25T08:46:20;102694.13;;;14.02;66.72
76358;BME280;65185;21.060;105.826;2024-01-25T08:48:47;102689.78;;;14.03;67.81
76358;BME280;65185;21.060;105.826;2024-01-25T08:51:13;102698.50;;;14.02;67.91
76358;BME280;65185;21.060;105.826;2024-01-25T08:53:43;102694.97;;;13.98;67.51
76358;BME280;65185;21.060;105.826;2024-01-25T08:56:10;102693.19;;;13.97;67.50
76358;BME280;65185;21.060;105.826;2024-01-25T08:58:36;102689.75;;;13.98;68.78
76358;BME280;65185;21.060;105.826;2024-01-25T09:01:03;102692.38;;;13.98;68.49
76358;BME280;65185;21.060;105.826;2024-01-25T09:03:29;102695.84;;;14.00;68.83
76358;BME280;65185;21.060;105.826;2024-01-25T09:05:56;102698.44;;;14.00;68.22
76358;BME280;65185;21.060;105.826;2024-01-25T09:08:23;102701.91;;;13.99;68.94
76358;BME280;65185;21.060;105.826;2024-01-25T09:10:51;102701.91;;;13.99;69.17
76358;BME280;65185;21.060;105.826;2024-01-25T09:13:18;102702.78;;;13.98;69.92
76358;BME280;65185;21.060;105.826;2024-01-25T09:15:46;102701.91;;;13.99;69.48
76358;BME280;65185;21.060;105.826;2024-01-25T09:18:13;102698.44;;;14.00;70.11
76358;BME280;65185;21.060;105.826;2024-01-25T09:20:40;102704.53;;;14.01;70.23
76358;BME280;65185;21.060;105.826;2024-01-25T09:23:14;102695.84;;;14.00;70.19
76358;BME280;65185;21.060;105.826;2024-01-25T09:25:45;102708.00;;;14.00;70.51
76358;BME280;65185;21.060;105.826;2024-01-25T09:28:13;102699.28;;;13.98;70.48
76358;BME280;65185;21.060;105.826;2024-01-25T09:30:42;102697.56;;;13.98;70.57
76358;BME280;65185;21.060;105.826;2024-01-25T09:35:56;102695.84;;;14.00;69.74
76358;BME280;65185;21.060;105.826;2024-01-25T09:38:23;102695.81;;;13.99;69.90
76358;BME280;65185;21.060;105.826;2024-01-25T09:40:50;102688.88;;;13.98;69.85
76358;BME280;65185;21.060;105.826;2024-01-25T09:43:18;102701.03;;;14.00;70.16
76358;BME280;65185;21.060;105.826;2024-01-25T09:45:50;102698.44;;;13.99;70.11
76358;BME280;65185;21.060;105.826;2024-01-25T09:48:22;102699.28;;;13.98;70.19
76358;BME280;65185;21.060;105.826;2024-01-25T09:50:49;102698.41;;;13.96;70.02
76358;BME280;65185;21.060;105.826;2024-01-25T09:53:26;102708.78;;;13.93;70.41
76358;BME280;65185;21.060;105.826;2024-01-25T09:56:03;102712.22;;;13.89;69.57
76358;BME280;65185;21.060;105.826;2024-01-25T09:58:43;102713.03;;;13.88;70.34
76358;BME280;65185;21.060;105.826;2024-01-25T10:01:15;102726.03;;;13.85;69.14
76358;BME280;65185;21.060;105.826;2024-01-25T10:03:43;102725.94;;;13.79;68.82
76358;BME280;65185;21.060;105.826;2024-01-25T10:06:14;102723.34;;;13.77;69.23
76358;BME280;65185;21.060;105.826;2024-01-25T10:08:43;102719.81;;;13.74;69.14
76358;BME280;65185;21.060;105.826;2024-01-25T10:11:10;102724.13;;;13.72;69.20
76358;BME280;65185;21.060;105.826;2024-01-25T10:13:46;102730.13;;;13.66;68.39
76358;BME280;65185;21.060;105.826;2024-01-25T10:16:15;102716.97;;;13.59;69.45
76358;BME280;65185;21.060;105.826;2024-01-25T10:18:43;102723.97;;;13.60;69.80
76358;BME280;65185;21.060;105.826;2024-01-25T10:21:12;102729.13;;;13.58;69.74
76358;BME280;65185;21.060;105.826;2024-01-25T10:23:40;102733.47;;;13.58;69.79
76358;BME280;65185;21.060;105.826;2024-01-25T10:26:10;102741.31;;;13.61;70.22
76358;BME280;65185;21.060;105.826;2024-01-25T10:28:37;102745.63;;;13.59;70.24
76358;BME280;65185;21.060;105.826;2024-01-25T10:31:04;102742.19;;;13.60;70.25
76358;BME280;65185;21.060;105.826;2024-01-25T10:33:33;102746.53;;;13.61;70.19
76358;BME280;65185;21.060;105.826;2024-01-25T10:36:01;102741.19;;;13.53;70.09
76358;BME280;65185;21.060;105.826;2024-01-25T10:38:33;102736.31;;;13.19;69.94
76358;BME280;65185;21.060;105.826;2024-01-25T10:41:05;102727.66;;;12.74;73.74
76358;BME280;65185;21.060;105.826;2024-01-25T10:43:33;102740.16;;;12.47;75.52
76358;BME280;65185;21.060;105.826;2024-01-25T10:46:00;102739.91;;;12.35;76.57
76358;BME280;65185;21.060;105.826;2024-01-25T10:48:28;102750.38;;;12.38;76.88
76358;BME280;65185;21.060;105.826;2024-01-25T10:50:56;102756.38;;;12.35;76.39
76358;BME280;65185;21.060;105.826;2024-01-25T10:53:32;102764.09;;;12.32;76.17
76358;BME280;65185;21.060;105.826;2024-01-25T10:56:00;102770.97;;;12.29;75.90
76358;BME280;65185;21.060;105.826;2024-01-25T10:58:31;102767.63;;;12.34;75.86
76358;BME280;65185;21.060;105.826;2024-01-25T11:01:02;102766.16;;;12.48;75.55
76358;BME280;65185;21.060;105.826;2024-01-25T11:03:31;102774.84;;;12.49;75.78
76358;BME280;65185;21.060;105.826;2024-01-25T11:06:07;102766.06;;;12.42;76.17
76358;BME280;65185;21.060;105.826;2024-01-25T11:08:40;102776.47;;;12.42;76.95
76358;BME280;65185;21.060;105.826;2024-01-25T11:11:11;102779.75;;;12.35;76.58
76358;BME280;65185;21.060;105.826;2024-01-25T11:13:40;102777.16;;;12.35;76.74
76358;BME280;65185;21.060;105.826;2024-01-25T11:16:18;102780.19;;;12.55;76.50
76358;BME280;65185;21.060;105.826;2024-01-25T11:18:58;102773.97;;;12.48;76.39
76358;BME280;65185;21.060;105.826;2024-01-25T11:21:46;102784.22;;;12.41;76.89
76358;BME280;65185;21.060;105.826;2024-01-25T11:24:15;102775.59;;;12.43;77.29
76358;BME280;65185;21.060;105.826;2024-01-25T11:26:48;102769.50;;;12.41;76.01
76358;BME280;65185;21.060;105.826;2024-01-25T11:29:20;102781.03;;;12.55;75.86
76358;BME280;65185;21.060;105.826;2024-01-25T11:31:50;102781.31;;;12.69;75.70
76358;BME280;65185;21.060;105.826;2024-01-25T11:34:17;102777.66;;;12.59;75.65
76358;BME280;65185;21.060;105.826;2024-01-25T11:36:45;102792.94;;;12.44;76.27
76358;BME280;65185;21.060;105.826;2024-01-25T11:39:13;102788.38;;;12.33;76.54
76358;BME280;65185;21.060;105.826;2024-01-25T11:41:43;102788.22;;;12.25;77.24
76358;BME280;65185;21.060;105.826;2024-01-25T11:44:12;102786.88;;;12.42;76.49
76358;BME280;65185;21.060;105.826;2024-01-25T11:46:46;102793.19;;;12.55;76.59
76358;BME280;65185;21.060;105.826;2024-01-25T11:49:18;102796.63;;;12.55;77.50
76358;BME280;65185;21.060;105.826;2024-01-25T11:51:49;102799.03;;;12.45;77.16
76358;BME280;65185;21.060;105.826;2024-01-25T11:54:16;102802.75;;;12.57;77.36
76358;BME280;65185;21.060;105.826;2024-01-25T11:56:43;102816.84;;;12.68;77.16
76358;BME280;65185;21.060;105.826;2024-01-25T11:59:11;102815.09;;;12.67;76.49
76358;BME280;65185;21.060;105.826;2024-01-25T12:01:45;102822.44;;;12.45;76.30
76358;BME280;65185;21.060;105.826;2024-01-25T12:04:13;102829.03;;;12.29;76.37
76358;BME280;65185;21.060;105.826;2024-01-25T12:06:42;102839.97;;;12.53;75.59
76358;BME280;65185;21.060;105.826;2024-01-25T12:09:14;102834.59;;;12.46;75.12
76358;BME280;65185;21.060;105.826;2024-01-25T12:11:50;102835.97;;;12.30;75.52
76358;BME280;65185;21.060;105.826;2024-01-25T12:14:20;102839.16;;;12.17;75.56
76358;BME280;65185;21.060;105.826;2024-01-25T12:16:47;102839.25;;;12.22;76.05
76358;BME280;65185;21.060;105.826;2024-01-25T12:19:21;102844.88;;;12.41;75.48
76358;BME280;65185;21.060;105.826;2024-01-25T12:21:48;102843.22;;;12.45;76.14
76358;BME280;65185;21.060;105.826;2024-01-25T12:24:15;102848.22;;;12.34;76.32
76358;BME280;65185;21.060;105.826;2024-01-25T12:26:42;102851.81;;;12.41;76.53
76358;BME280;65185;21.060;105.826;2024-01-25T12:29:10;102859.03;;;12.54;75.60
76358;BME280;65185;21.060;105.826;2024-01-25T12:31:37;102858.97;;;12.51;76.46
76358;BME280;65185;21.060;105.826;2024-01-25T12:34:13;102853.50;;;12.39;77.55
76358;BME280;65185;21.060;105.826;2024-01-25T12:36:44;102860.69;;;12.50;77.52